createdAt,value
2019-05-06T00:03:27.891Z,69.86
2019-05-06T00:08:34.437Z,69.61
2019-05-06T00:13:37.581Z,69.68
2019-05-06T00:18:40.944Z,69.62
2019-05-06T00:23:48.867Z,70.58
2019-05-06T00:28:59.656Z,69.66
2019-05-06T00:34:04.368Z,69.95
2019-05-06T00:39:24.225Z,70.11
2019-05-06T00:44:27.080Z,70.85
2019-05-06T00:49:30.416Z,70.77
2019-05-06T00:54:35.667Z,70.83
2019-05-06T00:59:39.101Z,71.64
2019-05-06T01:04:44.492Z,73.00
2019-05-06T01:09:47.766Z,71.28
2019-05-06T01:14:54.555Z,73.01
2019-05-06T01:19:58.001Z,74.71
2019-05-06T01:25:01.351Z,72.15
2019-05-06T01:30:06.335Z,72.30
2019-05-06T01:35:09.769Z,71.80
2019-05-06T01:40:15.002Z,71.66
2019-05-06T01:45:18.512Z,72.55
2019-05-06T01:50:23.491Z,72.09
2019-05-06T01:55:27.236Z,73.04
2019-05-06T02:00:30.577Z,73.14
2019-05-06T02:05:34.018Z,73.26
2019-05-06T02:10:38.193Z,73.38
2019-05-06T02:15:41.609Z,73.70
2019-05-06T02:20:45.899Z,73.56
2019-05-06T02:25:50.877Z,73.26
2019-05-06T02:31:14.873Z,73.96
2019-05-06T02:36:36.413Z,73.84
2019-05-06T02:41:39.774Z,73.34
2019-05-06T02:46:44.809Z,73.15
2019-05-06T02:51:48.161Z,72.67
2019-05-06T02:56:53.225Z,71.74
2019-05-06T03:01:56.596Z,71.74
2019-05-06T03:07:03.432Z,72.43
2019-05-06T03:12:05.613Z,72.02
2019-05-06T03:17:08.960Z,73.11
2019-05-06T03:22:16.821Z,72.83
2019-05-06T03:27:20.197Z,73.51
2019-05-06T03:32:30.190Z,72.27
2019-05-06T03:37:28.868Z,71.04
2019-05-06T03:42:33.478Z,72.21
2019-05-06T03:47:47.441Z,71.02
2019-05-06T03:52:55.957Z,73.54
2019-05-06T03:57:57.087Z,73.19
2019-05-06T04:03:03.146Z,73.57
2019-05-06T04:08:05.677Z,73.43
2019-05-06T04:13:13.378Z,72.18
2019-05-06T04:18:17.063Z,72.69
2019-05-06T04:23:23.566Z,72.87
2019-05-06T04:28:34.441Z,72.60
2019-05-06T04:33:37.871Z,72.29
2019-05-06T04:38:43.377Z,71.37
2019-05-06T04:43:47.185Z,72.90
2019-05-06T04:48:50.597Z,73.28
2019-05-06T04:53:54.220Z,71.35
2019-05-06T04:58:57.938Z,70.45
2019-05-06T05:04:03.540Z,69.37
2019-05-06T05:09:06.605Z,70.27
2019-05-06T05:14:13.425Z,70.02
2019-05-06T05:19:17.305Z,68.73
2019-05-06T05:24:20.951Z,69.54
2019-05-06T05:29:24.452Z,69.50
2019-05-06T05:34:38.057Z,69.50
2019-05-06T05:39:33.345Z,68.80
2019-05-06T05:44:40.808Z,69.57
2019-05-06T05:50:03.083Z,69.57
2019-05-06T05:55:06.620Z,68.72
2019-05-06T06:00:12.783Z,67.61
2019-05-06T06:05:15.734Z,67.61
2019-05-06T06:10:22.583Z,67.69
2019-05-06T06:15:36.585Z,67.13
2019-05-06T06:20:50.083Z,66.16
2019-05-06T06:25:53.497Z,65.14
2019-05-06T06:31:03.032Z,63.98
2019-05-06T06:36:13.784Z,62.26
2019-05-06T06:41:17.197Z,61.46
2019-05-06T06:46:22.378Z,62.07
2019-05-06T06:51:25.986Z,60.96
2019-05-06T06:56:32.818Z,60.89
2019-05-06T07:01:42.632Z,60.52
2019-05-06T07:06:50.622Z,60.52
2019-05-06T07:11:53.947Z,60.43
2019-05-06T07:17:22.819Z,60.01
2019-05-06T07:22:27.821Z,59.71
2019-05-06T07:27:32.430Z,59.39
2019-05-06T07:32:35.857Z,58.75
2019-05-06T07:37:39.140Z,58.41
2019-05-06T07:42:48.203Z,57.95
2019-05-06T07:47:53.283Z,57.92
2019-05-06T07:53:08.642Z,56.62
2019-05-06T07:58:13.837Z,56.45
2019-05-06T08:03:17.310Z,56.63
2019-05-06T08:08:22.865Z,56.69
2019-05-06T08:13:25.649Z,56.84
2019-05-06T08:18:28.943Z,56.43
2019-05-06T08:23:36.842Z,56.52
2019-05-06T08:28:41.546Z,56.25
2019-05-06T08:33:45.233Z,56.68
2019-05-06T08:38:58.588Z,56.69
2019-05-06T08:44:02.788Z,55.55
2019-05-06T08:49:06.166Z,55.07
2019-05-06T08:54:13.249Z,53.98
2019-05-06T08:59:17.216Z,53.44
2019-05-06T09:04:22.832Z,52.67
2019-05-06T09:09:26.251Z,51.99
2019-05-06T09:14:29.564Z,57.72
2019-05-06T09:19:33.324Z,55.07
2019-05-06T09:24:36.722Z,54.06
2019-05-06T09:29:42.923Z,54.52
2019-05-06T09:34:48.149Z,51.96
2019-05-06T09:39:53.457Z,49.87
2019-05-06T09:44:56.493Z,50.25
2019-05-06T09:50:02.521Z,50.67
2019-05-06T09:55:09.947Z,49.24
2019-05-06T10:00:14.218Z,49.97
2019-05-06T10:05:17.532Z,49.80
2019-05-06T10:10:22.340Z,48.45
2019-05-06T10:15:25.847Z,48.03
2019-05-06T10:20:29.128Z,47.76
2019-05-06T10:25:32.437Z,48.42
2019-05-06T10:30:35.786Z,49.12
2019-05-06T10:35:39.073Z,50.96
2019-05-06T10:41:00.987Z,51.92
2019-05-06T10:45:56.502Z,51.90
2019-05-06T10:51:13.538Z,50.84
2019-05-06T10:56:25.709Z,48.01
2019-05-06T11:01:36.143Z,48.01
2019-05-06T11:06:39.510Z,46.43
2019-05-06T11:11:42.940Z,45.32
2019-05-06T11:16:47.091Z,43.96
2019-05-06T11:21:52.931Z,44.74
2019-05-06T11:26:55.420Z,42.21
2019-05-06T11:32:02.315Z,43.06
2019-05-06T11:37:25.325Z,41.60
2019-05-06T11:42:32.613Z,42.73
2019-05-06T11:47:33.650Z,44.15
2019-05-06T11:52:37.879Z,44.14
2019-05-06T11:57:44.662Z,44.30
2019-05-06T12:02:48.906Z,41.90
2019-05-06T12:08:01.813Z,41.60
2019-05-06T12:12:57.402Z,40.65
2019-05-06T12:18:03.108Z,39.81
2019-05-06T12:23:05.718Z,39.72
2019-05-06T12:28:09.021Z,38.38
2019-05-06T12:33:28.947Z,39.72
2019-05-06T12:38:36.592Z,38.65
2019-05-06T12:43:43.008Z,37.60
2019-05-06T12:48:48.208Z,37.92
2019-05-06T12:53:52.918Z,41.08
2019-05-06T12:58:56.462Z,40.78
2019-05-06T13:04:04.583Z,41.69
2019-05-06T13:09:07.096Z,41.28
2019-05-06T13:14:12.548Z,41.62
2019-05-06T13:19:16.474Z,39.11
2019-05-06T13:24:19.970Z,39.24
2019-05-06T13:29:24.971Z,40.22
2019-05-06T13:34:28.470Z,40.51
2019-05-06T13:39:32.870Z,40.93
2019-05-06T13:44:36.448Z,41.14
2019-05-06T13:49:42.840Z,40.33
2019-05-06T13:54:46.388Z,40.47
2019-05-06T13:59:49.621Z,42.02
2019-05-06T14:04:52.989Z,43.60
2019-05-06T14:09:56.314Z,43.73
2019-05-06T14:15:00.570Z,44.36
2019-05-06T14:20:05.010Z,42.19
2019-05-06T14:25:12.804Z,41.24
2019-05-06T14:30:22.810Z,41.30
2019-05-06T14:35:26.227Z,41.63
2019-05-06T14:40:33.095Z,42.33
2019-05-06T14:45:36.138Z,41.29
2019-05-06T14:50:46.078Z,42.47
2019-05-06T14:55:44.522Z,41.20
2019-05-06T15:00:47.794Z,41.27
2019-05-06T15:05:51.096Z,41.22
2019-05-06T15:10:54.412Z,41.42
2019-05-06T15:15:57.750Z,39.72
2019-05-06T15:21:29.339Z,38.98
2019-05-06T15:26:06.094Z,40.88
2019-05-06T15:31:29.547Z,41.42
2019-05-06T15:36:34.493Z,41.99
2019-05-06T15:41:37.990Z,42.56
2019-05-06T15:46:43.076Z,42.53
2019-05-06T15:51:46.514Z,43.47
2019-05-06T15:56:49.890Z,42.14
2019-05-06T16:01:53.355Z,42.78
2019-05-06T16:06:56.725Z,43.36
2019-05-06T16:12:02.747Z,43.50
2019-05-06T16:17:05.148Z,44.22
2019-05-06T16:22:08.522Z,44.73
2019-05-06T16:27:12.446Z,44.89
2019-05-06T16:32:15.829Z,45.25
2019-05-06T16:37:19.137Z,45.49
2019-05-06T16:42:22.600Z,46.32
2019-05-06T16:47:38.363Z,46.36
2019-05-06T16:52:44.822Z,47.22
2019-05-06T16:57:52.470Z,48.31
2019-05-06T17:03:03.395Z,47.17
2019-05-06T17:08:06.707Z,46.82
2019-05-06T17:13:12.500Z,47.61
2019-05-06T17:18:15.049Z,48.26
2019-05-06T17:23:18.646Z,48.44
2019-05-06T17:28:33.523Z,48.52
2019-05-06T17:33:42.819Z,49.00
2019-05-06T17:38:47.664Z,50.17
2019-05-06T17:43:52.099Z,49.76
2019-05-06T17:49:02.248Z,50.22
2019-05-06T17:54:05.694Z,50.07
2019-05-06T17:59:08.998Z,50.70
2019-05-06T18:04:12.632Z,51.92
2019-05-06T18:09:16.047Z,51.95
2019-05-06T18:14:19.370Z,51.80
2019-05-06T18:19:22.663Z,52.84
2019-05-06T18:24:25.949Z,53.19
2019-05-06T18:29:29.246Z,53.53
2019-05-06T18:34:33.172Z,53.73
2019-05-06T18:39:36.509Z,53.95
2019-05-06T18:44:42.089Z,53.49
2019-05-06T18:49:44.794Z,53.75
2019-05-06T18:54:48.082Z,53.87
2019-05-06T18:59:53.313Z,54.14
2019-05-06T19:05:03.510Z,54.92
2019-05-06T19:10:23.999Z,54.70
2019-05-06T19:15:28.581Z,54.68
2019-05-06T19:20:33.794Z,55.09
2019-05-06T19:25:37.370Z,55.67
2019-05-06T19:30:40.839Z,56.96
2019-05-06T19:35:44.148Z,57.84
2019-05-06T19:40:47.448Z,57.32
2019-05-06T19:45:52.889Z,58.66
2019-05-06T19:50:55.859Z,58.76
2019-05-06T19:55:59.178Z,60.21
2019-05-06T20:01:04.083Z,60.02
2019-05-06T20:06:24.846Z,60.79
2019-05-06T20:11:33.074Z,61.32
2019-05-06T20:16:36.500Z,60.04
2019-05-06T20:21:42.232Z,61.70
2019-05-06T20:26:44.820Z,62.02
2019-05-06T20:31:48.128Z,61.19
2019-05-06T20:36:52.883Z,61.79
2019-05-06T20:41:56.265Z,61.30
2019-05-06T20:46:59.581Z,61.09
2019-05-06T20:52:02.871Z,61.11
2019-05-06T20:57:06.163Z,64.56
2019-05-06T21:02:09.452Z,64.40
2019-05-06T21:07:12.758Z,63.15
2019-05-06T21:12:16.047Z,66.63
2019-05-06T21:17:19.354Z,63.21
2019-05-06T21:22:22.653Z,64.23
2019-05-06T21:27:25.945Z,64.03
2019-05-06T21:32:29.246Z,67.79
2019-05-06T21:37:32.530Z,65.39
2019-05-06T21:42:35.830Z,65.18
2019-05-06T21:47:42.589Z,66.17
2019-05-06T21:52:45.123Z,66.37
2019-05-06T21:57:48.419Z,65.54
2019-05-06T22:02:52.981Z,68.32
2019-05-06T22:07:56.389Z,66.86
2019-05-06T22:12:59.680Z,65.89
2019-05-06T22:18:02.978Z,66.03
2019-05-06T22:23:06.287Z,66.88
2019-05-06T22:28:09.581Z,66.78
2019-05-06T22:33:12.878Z,67.41
2019-05-06T22:38:16.155Z,68.65
2019-05-06T22:43:19.433Z,68.22
2019-05-06T22:48:22.756Z,68.96
2019-05-06T22:53:26.050Z,68.47
2019-05-06T22:58:29.358Z,67.57
2019-05-06T23:03:34.594Z,68.41
2019-05-06T23:08:38.007Z,69.30
2019-05-06T23:13:41.921Z,70.39
2019-05-06T23:18:46.328Z,70.12
2019-05-06T23:23:49.609Z,69.01
2019-05-06T23:28:52.911Z,69.07
2019-05-06T23:33:56.210Z,71.74
2019-05-06T23:39:37.623Z,71.82
2019-05-06T23:45:17.146Z,69.97
2019-05-06T23:56:45.443Z,70.49
